createdAt,value
2022-11-17T00:01:52.142Z,8.91
2022-11-17T00:04:18.942Z,8.91
2022-11-17T00:06:45.462Z,8.90
2022-11-17T00:09:17.400Z,8.90
2022-11-17T00:12:03.799Z,8.90
2022-11-17T00:14:33.036Z,8.90
2022-11-17T00:17:05.133Z,8.90
2022-11-17T00:19:50.537Z,8.91
2022-11-17T00:22:17.129Z,8.92
2022-11-17T00:24:43.590Z,8.94
2022-11-17T00:27:10.234Z,8.94
2022-11-17T00:29:39.278Z,8.95
2022-11-17T00:32:29.767Z,8.95
2022-11-17T00:34:56.476Z,8.97
2022-11-17T00:37:23.413Z,8.97
2022-11-17T00:39:49.876Z,8.98
2022-11-17T00:42:16.342Z,8.99
2022-11-17T00:44:42.816Z,9.00
2022-11-17T00:47:09.269Z,8.99
2022-11-17T00:49:36.717Z,9.01
2022-11-17T00:52:03.463Z,9.01
2022-11-17T00:54:30.036Z,9.02
2022-11-17T00:56:56.577Z,9.02
2022-11-17T00:59:23.046Z,9.03
2022-11-17T01:01:49.999Z,9.03
2022-11-17T01:04:16.491Z,9.05
2022-11-17T01:06:46.261Z,9.06
2022-11-17T01:09:20.095Z,9.06
2022-11-17T01:11:48.052Z,9.06
2022-11-17T01:14:20.656Z,9.06
2022-11-17T01:16:47.662Z,9.06
2022-11-17T01:19:15.194Z,9.07
2022-11-17T01:21:42.032Z,9.07
2022-11-17T01:24:11.214Z,9.08
2022-11-17T01:26:38.854Z,9.08
2022-11-17T01:29:06.746Z,9.08
2022-11-17T01:31:36.266Z,9.08
2022-11-17T01:34:02.971Z,9.09
2022-11-17T01:36:56.783Z,9.09
2022-11-17T01:39:26.976Z,9.10
2022-11-17T01:41:54.832Z,9.13
2022-11-17T01:44:52.811Z,9.13
2022-11-17T01:47:46.515Z,9.13
2022-11-17T01:50:19.913Z,9.14
2022-11-17T01:52:48.815Z,9.15
2022-11-17T01:55:15.355Z,9.15
2022-11-17T01:57:47.870Z,9.17
2022-11-17T02:00:15.021Z,9.19
2022-11-17T02:02:43.420Z,9.18
2022-11-17T02:05:21.971Z,9.19
2022-11-17T02:07:52.595Z,9.21
2022-11-17T02:10:19.045Z,9.21
2022-11-17T02:12:46.013Z,9.23
2022-11-17T02:15:12.452Z,9.23
2022-11-17T02:17:42.605Z,9.25
2022-11-17T02:20:11.060Z,9.25
2022-11-17T02:22:55.827Z,9.27
2022-11-17T02:25:36.410Z,9.28
2022-11-17T02:28:28.325Z,9.29
2022-11-17T02:31:18.797Z,9.29
2022-11-17T02:33:57.214Z,9.31
2022-11-17T02:36:34.692Z,9.34
2022-11-17T02:39:16.674Z,9.34
2022-11-17T02:42:00.602Z,9.34
2022-11-17T02:44:41.053Z,9.34
2022-11-17T02:47:24.609Z,9.35
2022-11-17T02:49:57.606Z,9.34
2022-11-17T02:52:25.301Z,9.34
2022-11-17T02:54:51.809Z,9.35
2022-11-17T02:57:29.607Z,9.35
2022-11-17T02:59:58.201Z,9.35
2022-11-17T03:02:52.690Z,9.36
2022-11-17T03:05:22.414Z,9.36
2022-11-17T03:08:33.742Z,9.35
2022-11-17T03:11:03.910Z,9.36
2022-11-17T03:14:08.668Z,9.37
2022-11-17T03:17:11.232Z,9.38
2022-11-17T03:19:44.497Z,9.38
2022-11-17T03:22:16.172Z,9.38
2022-11-17T03:24:57.838Z,9.39
2022-11-17T03:27:29.246Z,9.37
2022-11-17T03:30:00.581Z,9.36
2022-11-17T03:32:32.595Z,9.35
2022-11-17T03:35:05.161Z,9.36
2022-11-17T03:37:33.872Z,9.37
2022-11-17T03:40:10.750Z,9.38
2022-11-17T03:42:42.154Z,9.39
2022-11-17T03:45:20.502Z,9.40
2022-11-17T03:47:51.867Z,9.39
2022-11-17T03:50:33.800Z,9.39
2022-11-17T03:53:03.254Z,9.40
2022-11-17T03:56:04.310Z,9.40
2022-11-17T03:58:35.075Z,9.42
2022-11-17T04:01:04.567Z,9.44
2022-11-17T04:03:34.969Z,9.42
2022-11-17T04:06:01.819Z,9.41
2022-11-17T04:08:30.747Z,9.43
2022-11-17T04:11:16.280Z,9.45
2022-11-17T04:14:01.344Z,9.47
2022-11-17T04:16:27.884Z,9.48
2022-11-17T04:18:58.550Z,9.46
2022-11-17T04:21:25.631Z,9.42
2022-11-17T04:23:52.118Z,9.42
2022-11-17T04:26:37.161Z,9.41
2022-11-17T04:29:03.753Z,9.41
2022-11-17T04:31:31.535Z,9.43
2022-11-17T04:34:03.568Z,9.43
2022-11-17T04:36:34.877Z,9.43
2022-11-17T04:39:01.800Z,9.43
2022-11-17T04:41:48.736Z,9.38
2022-11-17T04:44:17.569Z,9.33
2022-11-17T04:46:45.952Z,9.27
2022-11-17T04:49:13.189Z,9.27
2022-11-17T04:51:40.320Z,9.25
2022-11-17T04:54:08.208Z,9.28
2022-11-17T04:56:35.220Z,9.26
2022-11-17T04:59:02.284Z,9.24
2022-11-17T05:01:29.589Z,9.26
2022-11-17T05:04:01.359Z,9.25
2022-11-17T05:06:33.748Z,9.25
2022-11-17T05:09:03.771Z,9.29
2022-11-17T05:11:49.832Z,9.31
2022-11-17T05:14:19.509Z,9.34
2022-11-17T05:17:08.960Z,9.39
2022-11-17T05:19:41.845Z,9.40
2022-11-17T05:22:28.252Z,9.43
2022-11-17T05:24:55.275Z,9.46
2022-11-17T05:27:23.112Z,9.49
2022-11-17T05:29:49.684Z,9.50
2022-11-17T05:32:16.242Z,9.51
2022-11-17T05:34:42.827Z,9.53
2022-11-17T05:37:09.349Z,9.54
2022-11-17T05:39:35.887Z,9.55
2022-11-17T05:42:02.425Z,9.56
2022-11-17T05:44:28.837Z,9.56
2022-11-17T05:46:55.343Z,9.55
2022-11-17T05:49:21.909Z,9.54
2022-11-17T05:51:52.463Z,9.54
2022-11-17T05:54:19.504Z,9.52
2022-11-17T05:57:01.854Z,9.52
2022-11-17T05:59:40.605Z,9.52
2022-11-17T06:02:11.869Z,9.51
2022-11-17T06:04:39.330Z,9.51
2022-11-17T06:07:06.217Z,9.50
2022-11-17T06:09:35.577Z,9.49
2022-11-17T06:12:05.895Z,9.48
2022-11-17T06:14:34.245Z,9.49
2022-11-17T06:17:07.333Z,9.48
2022-11-17T06:19:43.194Z,9.48
2022-11-17T06:22:13.645Z,9.49
2022-11-17T06:24:43.430Z,9.48
2022-11-17T06:27:12.030Z,9.50
2022-11-17T06:29:44.056Z,9.53
2022-11-17T06:32:13.817Z,9.55
2022-11-17T06:34:41.239Z,9.56
2022-11-17T06:37:07.731Z,9.57
2022-11-17T06:39:34.242Z,9.56
2022-11-17T06:42:00.772Z,9.56
2022-11-17T06:44:27.325Z,9.55
2022-11-17T06:46:53.769Z,9.57
2022-11-17T06:49:20.266Z,9.58
2022-11-17T06:51:46.867Z,9.58
2022-11-17T06:54:14.911Z,9.60
2022-11-17T06:56:42.134Z,9.59
2022-11-17T06:59:08.629Z,9.61
2022-11-17T07:01:35.209Z,9.60
2022-11-17T07:04:01.750Z,9.60
2022-11-17T07:06:28.364Z,9.60
2022-11-17T07:08:54.926Z,9.60
2022-11-17T07:11:21.739Z,9.60
2022-11-17T07:13:48.260Z,9.61
2022-11-17T07:16:22.955Z,9.61
2022-11-17T07:18:50.725Z,9.61
2022-11-17T07:21:18.095Z,9.62
2022-11-17T07:23:45.825Z,9.63
2022-11-17T07:26:12.783Z,9.64
2022-11-17T07:28:39.468Z,9.65
2022-11-17T07:31:07.837Z,9.64
2022-11-17T07:33:35.090Z,9.65
2022-11-17T07:36:12.519Z,9.65
2022-11-17T07:38:40.548Z,9.64
2022-11-17T07:41:09.058Z,9.63
2022-11-17T07:43:36.706Z,9.63
2022-11-17T07:46:08.642Z,9.63
2022-11-17T07:48:35.732Z,9.62
2022-11-17T07:51:06.194Z,9.63
2022-11-17T07:53:35.096Z,9.62
2022-11-17T07:56:09.368Z,9.62
2022-11-17T07:58:37.045Z,9.62
2022-11-17T08:01:11.683Z,9.61
2022-11-17T08:03:38.441Z,9.60
2022-11-17T08:06:06.621Z,9.58
2022-11-17T08:08:34.166Z,9.56
2022-11-17T08:11:06.108Z,9.55
2022-11-17T08:13:33.460Z,9.53
2022-11-17T08:16:00.182Z,9.51
2022-11-17T08:18:27.479Z,9.49
2022-11-17T08:21:02.444Z,9.46
2022-11-17T08:23:29.042Z,9.46
2022-11-17T08:25:55.498Z,9.47
2022-11-17T08:28:22.603Z,9.48
2022-11-17T08:30:49.295Z,9.50
2022-11-17T08:33:15.891Z,9.51
2022-11-17T08:35:42.458Z,9.52
2022-11-17T08:38:11.661Z,9.52
2022-11-17T08:40:38.673Z,9.52
2022-11-17T08:43:05.294Z,9.51
2022-11-17T08:45:31.951Z,9.48
2022-11-17T08:47:58.781Z,9.46
2022-11-17T08:50:25.583Z,9.44
2022-11-17T08:52:53.172Z,9.45
2022-11-17T08:55:19.900Z,9.44
2022-11-17T08:57:46.572Z,9.42
2022-11-17T09:00:13.680Z,9.41
2022-11-17T09:02:40.417Z,9.38
2022-11-17T09:05:07.738Z,9.38
2022-11-17T09:07:35.201Z,9.36
2022-11-17T09:10:02.287Z,9.36
2022-11-17T09:12:28.864Z,9.41
2022-11-17T09:14:55.414Z,9.47
2022-11-17T09:17:21.960Z,9.56
2022-11-17T09:19:48.501Z,9.62
2022-11-17T09:22:15.338Z,9.63
2022-11-17T09:24:41.860Z,9.67
2022-11-17T09:27:08.792Z,9.75
2022-11-17T09:29:35.300Z,9.76
2022-11-17T09:32:02.015Z,9.78
2022-11-17T09:34:29.573Z,9.78
2022-11-17T09:36:56.510Z,9.79
2022-11-17T09:39:23.172Z,9.77
2022-11-17T09:41:52.558Z,9.73
2022-11-17T09:44:31.669Z,9.75
2022-11-17T09:47:23.293Z,9.76
2022-11-17T09:50:00.386Z,9.75
2022-11-17T09:52:51.641Z,9.75
2022-11-17T09:55:45.227Z,9.72
2022-11-17T09:58:39.876Z,9.74
2022-11-17T10:01:12.240Z,9.78
2022-11-17T10:03:45.464Z,9.79
2022-11-17T10:06:26.002Z,9.76
2022-11-17T10:09:00.404Z,9.72
2022-11-17T10:11:33.000Z,9.75
2022-11-17T10:14:04.215Z,9.74
2022-11-17T10:16:31.338Z,9.70
2022-11-17T10:18:58.315Z,9.70
2022-11-17T10:21:29.448Z,9.68
2022-11-17T10:23:59.748Z,9.67
2022-11-17T10:26:27.182Z,9.69
2022-11-17T10:29:10.963Z,9.73
2022-11-17T10:31:45.911Z,9.76
2022-11-17T10:34:37.037Z,9.80
2022-11-17T10:37:12.985Z,9.84
2022-11-17T10:39:41.812Z,9.80
2022-11-17T10:42:20.561Z,9.78
2022-11-17T10:44:53.491Z,9.76
2022-11-17T10:47:39.867Z,9.74
2022-11-17T10:50:06.327Z,9.72
2022-11-17T10:52:32.856Z,9.70
2022-11-17T10:55:20.663Z,9.74
2022-11-17T10:57:52.002Z,9.82
2022-11-17T11:00:36.263Z,9.92
2022-11-17T11:03:34.350Z,10.04
2022-11-17T11:06:25.009Z,10.09
2022-11-17T11:08:56.783Z,10.11
2022-11-17T11:11:47.789Z,10.13
2022-11-17T11:14:14.321Z,10.15
2022-11-17T11:16:47.639Z,10.16
2022-11-17T11:19:16.860Z,10.15
2022-11-17T11:21:55.547Z,10.11
2022-11-17T11:24:35.887Z,10.06
2022-11-17T11:27:34.287Z,10.09
2022-11-17T11:30:03.925Z,10.12
2022-11-17T11:32:56.132Z,10.12
2022-11-17T11:35:50.105Z,10.07
2022-11-17T11:38:28.518Z,10.02
2022-11-17T11:41:10.973Z,10.06
2022-11-17T11:43:46.553Z,10.11
2022-11-17T11:46:22.199Z,10.14
2022-11-17T11:48:53.471Z,10.16
2022-11-17T11:51:32.033Z,10.15
2022-11-17T11:54:17.566Z,10.08
2022-11-17T11:56:46.144Z,10.03
2022-11-17T11:59:25.485Z,10.00
2022-11-17T12:02:12.620Z,9.99
2022-11-17T12:04:47.918Z,9.96
2022-11-17T12:07:37.821Z,9.90
2022-11-17T12:10:13.342Z,9.89
2022-11-17T12:12:40.944Z,9.88
2022-11-17T12:15:19.399Z,9.88
2022-11-17T12:17:51.975Z,9.89
2022-11-17T12:20:30.849Z,9.87
2022-11-17T12:23:07.849Z,9.87
2022-11-17T12:25:36.838Z,9.85
2022-11-17T12:28:32.109Z,9.82
2022-11-17T12:31:05.133Z,9.82
2022-11-17T12:33:53.187Z,9.80
2022-11-17T12:36:32.919Z,9.80
2022-11-17T12:39:01.183Z,9.81
2022-11-17T12:41:46.389Z,9.84
2022-11-17T12:44:31.557Z,9.84
2022-11-17T12:47:13.278Z,9.82
2022-11-17T12:49:48.399Z,9.81
2022-11-17T12:52:39.972Z,9.80
2022-11-17T12:55:25.352Z,9.79
2022-11-17T12:58:21.030Z,9.77
2022-11-17T13:01:04.860Z,9.79
2022-11-17T13:04:17.963Z,9.78
2022-11-17T13:07:06.496Z,9.78
2022-11-17T13:09:35.312Z,9.78
2022-11-17T13:12:10.804Z,9.77
2022-11-17T13:14:58.349Z,9.78
2022-11-17T13:17:29.575Z,9.83
2022-11-17T13:20:29.276Z,9.86
2022-11-17T13:23:06.510Z,9.87
2022-11-17T13:25:34.720Z,9.90
2022-11-17T13:28:04.799Z,9.89
2022-11-17T13:30:33.238Z,9.86
2022-11-17T13:33:03.717Z,9.83
2022-11-17T13:35:36.518Z,9.80
2022-11-17T13:38:22.866Z,9.78
2022-11-17T13:40:51.736Z,9.76
2022-11-17T13:43:20.855Z,9.74
2022-11-17T13:45:48.700Z,9.72
2022-11-17T13:48:36.018Z,9.71
2022-11-17T13:51:35.110Z,9.70
2022-11-17T13:54:17.750Z,9.70
2022-11-17T13:56:47.370Z,9.66
2022-11-17T13:59:29.266Z,9.65
2022-11-17T14:02:19.106Z,9.63
2022-11-17T14:05:20.449Z,9.61
2022-11-17T14:07:49.427Z,9.59
2022-11-17T14:10:21.893Z,9.60
2022-11-17T14:13:22.912Z,9.60
2022-11-17T14:15:56.632Z,9.61
2022-11-17T14:18:36.880Z,9.61
2022-11-17T14:21:04.450Z,9.63
2022-11-17T14:23:31.022Z,9.63
2022-11-17T14:25:57.628Z,9.67
2022-11-17T14:28:24.304Z,9.69
2022-11-17T14:30:52.997Z,9.71
2022-11-17T14:33:20.707Z,9.72
2022-11-17T14:35:52.772Z,9.74
2022-11-17T14:38:20.642Z,9.74
2022-11-17T14:40:49.491Z,9.75
2022-11-17T14:43:15.984Z,9.75
2022-11-17T14:45:42.510Z,9.75
2022-11-17T14:48:14.734Z,9.76
2022-11-17T14:50:45.259Z,9.75
2022-11-17T14:53:11.756Z,9.76
2022-11-17T14:55:38.236Z,9.74
2022-11-17T14:58:04.849Z,9.74
2022-11-17T15:00:31.373Z,9.74
2022-11-17T15:02:57.889Z,9.73
2022-11-17T15:05:24.393Z,9.73
2022-11-17T15:07:50.936Z,9.71
2022-11-17T15:10:17.555Z,9.70
2022-11-17T15:12:44.063Z,9.68
2022-11-17T15:15:10.916Z,9.67
2022-11-17T15:17:37.444Z,9.66
2022-11-17T15:20:05.350Z,9.66
2022-11-17T15:22:31.881Z,9.64
2022-11-17T15:24:58.362Z,9.62
2022-11-17T15:27:24.885Z,9.57
2022-11-17T15:29:51.343Z,9.57
2022-11-17T15:32:17.882Z,9.57
2022-11-17T15:34:44.409Z,9.57
2022-11-17T15:37:10.886Z,9.55
2022-11-17T15:39:37.374Z,9.55
2022-11-17T15:42:03.931Z,9.53
2022-11-17T15:44:30.524Z,9.54
2022-11-17T15:46:57.066Z,9.53
2022-11-17T15:49:23.522Z,9.51
2022-11-17T15:51:50.028Z,9.51
2022-11-17T15:54:20.337Z,9.51
2022-11-17T15:56:47.454Z,9.49
2022-11-17T15:59:14.453Z,9.47
2022-11-17T16:01:41.425Z,9.44
2022-11-17T16:04:09.167Z,9.42
2022-11-17T16:06:37.839Z,9.41
2022-11-17T16:09:06.494Z,9.39
2022-11-17T16:11:33.857Z,9.37
2022-11-17T16:14:00.928Z,9.38
2022-11-17T16:16:30.709Z,9.37
2022-11-17T16:18:57.704Z,9.36
2022-11-17T16:21:24.904Z,9.35
2022-11-17T16:23:56.885Z,9.34
2022-11-17T16:26:25.418Z,9.34
2022-11-17T16:29:04.216Z,9.32
2022-11-17T16:31:35.348Z,9.30
2022-11-17T16:34:05.194Z,9.27
2022-11-17T16:36:36.880Z,9.26
2022-11-17T16:39:06.842Z,9.23
2022-11-17T16:41:35.790Z,9.23
2022-11-17T16:44:03.467Z,9.20
2022-11-17T16:46:31.461Z,9.20
2022-11-17T16:49:03.699Z,9.21
2022-11-17T16:51:30.429Z,9.20
2022-11-17T16:54:02.114Z,9.19
2022-11-17T16:56:29.163Z,9.20
2022-11-17T16:58:55.865Z,9.21
2022-11-17T17:01:26.556Z,9.22
2022-11-17T17:04:01.696Z,9.23
2022-11-17T17:06:28.591Z,9.24
2022-11-17T17:08:59.588Z,9.24
2022-11-17T17:11:27.947Z,9.25
2022-11-17T17:13:56.303Z,9.23
2022-11-17T17:16:23.295Z,9.24
2022-11-17T17:18:54.880Z,9.24
2022-11-17T17:21:21.335Z,9.24
2022-11-17T17:23:47.861Z,9.23
2022-11-17T17:26:18.248Z,9.24
2022-11-17T17:28:47.152Z,9.21
2022-11-17T17:31:20.803Z,9.23
2022-11-17T17:33:48.928Z,9.21
2022-11-17T17:36:17.914Z,9.21
2022-11-17T17:38:48.947Z,9.22
2022-11-17T17:41:20.554Z,9.19
2022-11-17T17:43:48.019Z,9.18
2022-11-17T17:46:17.288Z,9.19
2022-11-17T17:48:45.006Z,9.19
2022-11-17T17:51:11.517Z,9.17
2022-11-17T17:53:38.291Z,9.19
2022-11-17T17:56:08.444Z,9.21
2022-11-17T17:58:40.357Z,9.19
2022-11-17T18:01:09.738Z,9.18
2022-11-17T18:03:37.109Z,9.17
2022-11-17T18:06:03.840Z,9.17
2022-11-17T18:08:35.765Z,9.14
2022-11-17T18:11:06.073Z,9.15
2022-11-17T18:13:37.579Z,9.15
2022-11-17T18:16:09.711Z,9.11
2022-11-17T18:18:37.060Z,9.11
2022-11-17T18:21:12.453Z,9.11
2022-11-17T18:23:39.584Z,9.08
2022-11-17T18:26:11.012Z,9.04
2022-11-17T18:28:40.656Z,9.04
2022-11-17T18:31:08.305Z,9.01
2022-11-17T18:33:35.820Z,8.99
2022-11-17T18:36:07.791Z,8.98
2022-11-17T18:38:36.144Z,8.97
2022-11-17T18:41:03.697Z,8.95
2022-11-17T18:43:31.610Z,8.92
2022-11-17T18:46:11.833Z,8.89
2022-11-17T18:48:39.835Z,8.87
2022-11-17T18:51:23.281Z,8.85
2022-11-17T18:53:51.704Z,8.82
2022-11-17T18:56:23.985Z,8.82
2022-11-17T18:58:50.559Z,8.80
2022-11-17T19:01:25.426Z,8.80
2022-11-17T19:03:54.029Z,8.78
2022-11-17T19:06:23.116Z,8.78
2022-11-17T19:08:50.694Z,8.74
2022-11-17T19:11:19.793Z,8.74
2022-11-17T19:13:47.246Z,8.74
2022-11-17T19:16:15.059Z,8.74
2022-11-17T19:18:42.733Z,8.71
2022-11-17T19:21:20.846Z,8.72
2022-11-17T19:23:51.777Z,8.70
2022-11-17T19:26:31.042Z,8.66
2022-11-17T19:28:59.908Z,8.64
2022-11-17T19:31:26.847Z,8.64
2022-11-17T19:33:54.173Z,8.62
2022-11-17T19:36:26.084Z,8.59
2022-11-17T19:38:54.755Z,8.57
2022-11-17T19:41:32.074Z,8.54
2022-11-17T19:44:00.974Z,8.52
2022-11-17T19:46:29.083Z,8.50
2022-11-17T19:48:57.075Z,8.50
2022-11-17T19:51:26.512Z,8.48
2022-11-17T19:53:55.322Z,8.46
2022-11-17T19:56:22.996Z,8.46
2022-11-17T19:58:50.339Z,8.42
2022-11-17T20:01:20.184Z,8.40
2022-11-17T20:03:47.251Z,8.40
2022-11-17T20:06:16.332Z,8.39
2022-11-17T20:08:42.943Z,8.39
2022-11-17T20:11:18.812Z,8.35
2022-11-17T20:13:45.932Z,8.36
2022-11-17T20:16:18.943Z,8.36
2022-11-17T20:18:50.073Z,8.34
2022-11-17T20:21:16.941Z,8.33
2022-11-17T20:23:46.284Z,8.31
2022-11-17T20:26:18.544Z,8.28
2022-11-17T20:28:46.033Z,8.28
2022-11-17T20:31:19.232Z,8.29
2022-11-17T20:33:47.616Z,8.27
2022-11-17T20:36:15.709Z,8.25
2022-11-17T20:38:42.351Z,8.24
2022-11-17T20:41:09.618Z,8.23
2022-11-17T20:43:36.311Z,8.21
2022-11-17T20:46:04.103Z,8.23
2022-11-17T20:48:31.639Z,8.19
2022-11-17T20:51:07.255Z,8.18
2022-11-17T20:53:34.637Z,8.17
2022-11-17T20:56:02.760Z,8.15
2022-11-17T20:58:30.310Z,8.13
2022-11-17T21:00:56.965Z,8.08
2022-11-17T21:03:25.873Z,8.06
2022-11-17T21:05:59.207Z,8.04
2022-11-17T21:08:32.687Z,8.04
2022-11-17T21:11:05.277Z,8.01
2022-11-17T21:13:33.542Z,8.01
2022-11-17T21:16:10.523Z,8.01
2022-11-17T21:18:38.769Z,8.01
2022-11-17T21:21:08.943Z,7.99
2022-11-17T21:23:37.276Z,7.95
2022-11-17T21:26:11.371Z,7.94
2022-11-17T21:28:38.700Z,7.95
2022-11-17T21:31:07.805Z,7.92
2022-11-17T21:33:35.425Z,7.93
2022-11-17T21:36:07.593Z,7.91
2022-11-17T21:38:34.743Z,7.90
2022-11-17T21:41:14.899Z,7.88
2022-11-17T21:43:43.161Z,7.88
2022-11-17T21:46:17.822Z,7.86
2022-11-17T21:48:44.835Z,7.84
2022-11-17T21:51:17.794Z,7.82
2022-11-17T21:53:44.918Z,7.81
2022-11-17T21:56:12.264Z,7.77
2022-11-17T21:58:39.571Z,7.77
2022-11-17T22:01:08.736Z,7.75
2022-11-17T22:03:36.026Z,7.71
2022-11-17T22:06:08.222Z,7.66
2022-11-17T22:08:37.622Z,7.63
2022-11-17T22:11:09.566Z,7.61
2022-11-17T22:13:36.718Z,7.59
2022-11-17T22:16:10.504Z,7.58
2022-11-17T22:18:37.091Z,7.59
2022-11-17T22:21:04.335Z,7.57
2022-11-17T22:23:31.165Z,7.60
2022-11-17T22:25:59.987Z,7.56
2022-11-17T22:28:27.836Z,7.53
2022-11-17T22:30:54.765Z,7.50
2022-11-17T22:33:22.383Z,7.50
2022-11-17T22:35:50.207Z,7.47
2022-11-17T22:38:16.937Z,7.45
2022-11-17T22:40:43.470Z,7.43
2022-11-17T22:43:14.649Z,7.39
2022-11-17T22:45:41.736Z,7.38
2022-11-17T22:48:08.851Z,7.36
2022-11-17T22:50:36.272Z,7.35
2022-11-17T22:53:03.350Z,7.32
2022-11-17T22:55:30.339Z,7.31
2022-11-17T22:57:56.792Z,7.28
2022-11-17T23:00:23.737Z,7.26
2022-11-17T23:02:50.437Z,7.22
2022-11-17T23:05:17.434Z,7.21
2022-11-17T23:07:44.510Z,7.18
2022-11-17T23:10:11.630Z,7.15
2022-11-17T23:12:38.975Z,7.14
2022-11-17T23:15:06.610Z,7.11
2022-11-17T23:17:33.190Z,7.08
2022-11-17T23:19:59.725Z,7.06
2022-11-17T23:22:26.248Z,7.03
2022-11-17T23:24:52.783Z,7.03
2022-11-17T23:27:19.303Z,7.01
2022-11-17T23:29:45.853Z,6.99
2022-11-17T23:32:12.390Z,6.97
2022-11-17T23:34:39.055Z,6.95
2022-11-17T23:37:05.540Z,6.92
2022-11-17T23:39:32.396Z,6.89
2022-11-17T23:41:58.911Z,6.89
2022-11-17T23:44:25.450Z,6.89
2022-11-17T23:46:51.896Z,6.88
2022-11-17T23:49:18.696Z,6.86
2022-11-17T23:51:45.596Z,6.83
2022-11-17T23:54:13.142Z,6.82
2022-11-17T23:56:40.123Z,6.83
2022-11-17T23:59:08.040Z,6.80
